createdAt,value
2022-11-26T00:00:56.321Z,26.58
2022-11-26T00:03:24.391Z,43.85
2022-11-26T00:05:54.842Z,30.20
2022-11-26T00:08:26.934Z,27.45
2022-11-26T00:13:25.740Z,30.80
2022-11-26T00:15:54.654Z,24.98
2022-11-26T00:18:23.498Z,35.00
2022-11-26T00:20:55.634Z,29.77
2022-11-26T00:25:55.601Z,24.60
2022-11-26T00:28:29.400Z,38.37
2022-11-26T00:30:59.553Z,36.97
2022-11-26T00:33:28.709Z,33.03
2022-11-26T00:35:58.739Z,42.85
2022-11-26T00:38:27.394Z,29.83
2022-11-26T00:40:55.203Z,34.17
2022-11-26T00:43:23.093Z,34.17
2022-11-26T00:45:52.220Z,41.13
2022-11-26T00:48:20.247Z,49.63
2022-11-26T00:50:50.930Z,38.47
2022-11-26T00:53:22.245Z,35.40
2022-11-26T00:55:51.213Z,47.50
2022-11-26T00:58:27.981Z,41.90
2022-11-26T01:00:59.316Z,32.42
2022-11-26T01:03:27.508Z,24.50
2022-11-26T01:05:58.331Z,34.88
2022-11-26T01:08:31.218Z,35.90
2022-11-26T01:10:59.638Z,38.67
2022-11-26T01:13:27.918Z,33.13
2022-11-26T01:15:58.318Z,37.08
2022-11-26T01:18:26.467Z,39.22
2022-11-26T01:20:54.195Z,39.60
2022-11-26T01:23:22.821Z,37.67
2022-11-26T01:25:50.570Z,41.47
2022-11-26T01:28:20.286Z,45.60
2022-11-26T01:30:48.108Z,38.28
2022-11-26T01:33:17.248Z,32.90
2022-11-26T01:35:45.036Z,34.42
2022-11-26T01:38:15.097Z,40.85
2022-11-26T01:41:02.911Z,42.58
2022-11-26T01:43:38.057Z,36.38
2022-11-26T01:46:15.321Z,36.60
2022-11-26T01:48:45.135Z,38.15
2022-11-26T01:51:14.359Z,36.05
2022-11-26T01:53:46.853Z,37.33
2022-11-26T01:56:20.171Z,32.13
2022-11-26T01:58:51.564Z,35.83
2022-11-26T02:01:20.347Z,28.50
2022-11-26T02:03:58.270Z,32.13
2022-11-26T02:06:31.205Z,43.67
2022-11-26T02:09:00.567Z,29.30
2022-11-26T02:11:28.885Z,47.28
2022-11-26T02:14:01.670Z,38.30
2022-11-26T02:16:46.357Z,32.88
2022-11-26T02:19:43.044Z,45.22
2022-11-26T02:22:22.893Z,37.58
2022-11-26T02:24:57.428Z,45.13
2022-11-26T02:28:09.335Z,41.92
2022-11-26T02:30:42.980Z,45.87
2022-11-26T02:33:17.074Z,38.50
2022-11-26T02:35:48.878Z,33.78
2022-11-26T02:38:20.526Z,43.92
2022-11-26T02:40:48.569Z,35.65
2022-11-26T02:43:17.755Z,47.58
2022-11-26T02:45:50.435Z,37.97
2022-11-26T02:48:23.274Z,43.53
2022-11-26T02:50:56.858Z,35.97
2022-11-26T02:53:27.816Z,46.80
2022-11-26T02:56:03.341Z,42.28
2022-11-26T02:58:33.205Z,42.88
2022-11-26T03:01:07.231Z,31.55
2022-11-26T03:03:38.654Z,45.08
2022-11-26T03:06:10.971Z,38.08
2022-11-26T03:08:39.296Z,44.45
2022-11-26T03:11:07.835Z,36.08
2022-11-26T03:13:35.709Z,47.30
2022-11-26T03:16:05.408Z,43.30
2022-11-26T03:18:33.205Z,50.58
2022-11-26T03:21:01.830Z,41.67
2022-11-26T03:23:29.576Z,38.80
2022-11-26T03:25:57.339Z,39.85
2022-11-26T03:28:25.124Z,35.58
2022-11-26T03:30:52.960Z,40.15
2022-11-26T03:33:22.097Z,43.10
2022-11-26T03:35:51.421Z,35.88
2022-11-26T03:38:19.233Z,41.00
2022-11-26T03:40:47.020Z,42.38
2022-11-26T03:43:14.791Z,41.40
2022-11-26T03:45:42.611Z,27.65
2022-11-26T03:48:10.385Z,34.40
2022-11-26T03:50:39.532Z,30.25
2022-11-26T03:53:07.400Z,33.38
2022-11-26T03:55:35.129Z,34.50
2022-11-26T03:58:02.871Z,29.23
2022-11-26T04:00:30.717Z,35.63
2022-11-26T04:02:58.517Z,37.10
2022-11-26T04:05:26.281Z,29.10
2022-11-26T04:07:55.455Z,28.15
2022-11-26T04:10:23.419Z,33.53
2022-11-26T04:12:51.240Z,30.67
2022-11-26T04:15:19.242Z,33.85
2022-11-26T04:17:47.003Z,23.15
2022-11-26T04:20:15.334Z,21.17
2022-11-26T04:22:43.041Z,34.17
2022-11-26T04:25:12.609Z,22.75
2022-11-26T04:27:40.594Z,27.73
2022-11-26T04:30:09.671Z,25.23
2022-11-26T04:32:39.857Z,21.00
2022-11-26T04:35:08.860Z,32.55
2022-11-26T04:37:36.734Z,37.28
2022-11-26T04:40:04.833Z,39.83
2022-11-26T04:42:34.323Z,30.35
2022-11-26T04:45:02.324Z,22.20
2022-11-26T04:47:30.152Z,24.50
2022-11-26T04:49:57.982Z,32.45
2022-11-26T04:52:26.011Z,31.60
2022-11-26T04:54:53.775Z,32.00
2022-11-26T04:57:21.547Z,33.95
2022-11-26T04:59:50.697Z,20.42
2022-11-26T05:02:18.616Z,31.38
2022-11-26T05:04:46.659Z,30.30
2022-11-26T05:07:14.558Z,19.58
2022-11-26T05:09:42.595Z,28.30
2022-11-26T05:12:11.329Z,27.40
2022-11-26T05:14:39.311Z,23.25
2022-11-26T05:17:08.709Z,31.08
2022-11-26T05:19:36.475Z,24.20
2022-11-26T05:22:04.221Z,18.55
2022-11-26T05:24:32.202Z,19.15
2022-11-26T05:26:59.992Z,33.55
2022-11-26T05:29:27.921Z,21.92
2022-11-26T05:31:55.863Z,32.38
2022-11-26T05:34:25.067Z,24.27
2022-11-26T05:36:52.845Z,28.25
2022-11-26T05:39:20.658Z,24.23
2022-11-26T05:41:48.460Z,26.85
2022-11-26T05:44:16.262Z,29.90
2022-11-26T05:46:44.270Z,26.42
2022-11-26T05:49:12.232Z,32.85
2022-11-26T05:51:41.321Z,31.58
2022-11-26T05:54:12.624Z,28.75
2022-11-26T05:56:40.333Z,43.85
2022-11-26T05:59:08.112Z,38.67
2022-11-26T06:01:35.974Z,29.92
2022-11-26T06:04:04.059Z,36.38
2022-11-26T06:06:31.970Z,32.97
2022-11-26T06:09:01.068Z,35.25
2022-11-26T06:11:28.827Z,37.35
2022-11-26T06:13:56.892Z,46.80
2022-11-26T06:16:24.709Z,43.17
2022-11-26T06:18:52.515Z,38.65
2022-11-26T06:21:20.256Z,40.42
2022-11-26T06:23:55.836Z,33.13
2022-11-26T06:26:25.361Z,32.08
2022-11-26T06:28:53.178Z,38.75
2022-11-26T06:31:21.150Z,28.80
2022-11-26T06:33:49.113Z,33.83
2022-11-26T06:36:16.858Z,39.65
2022-11-26T06:38:44.792Z,32.65
2022-11-26T06:41:12.490Z,43.25
2022-11-26T06:43:41.737Z,36.55
2022-11-26T06:46:11.717Z,49.10
2022-11-26T06:48:40.478Z,50.42
2022-11-26T06:51:10.254Z,42.72
2022-11-26T06:53:38.165Z,44.35
2022-11-26T06:56:08.327Z,47.28
2022-11-26T06:58:36.156Z,33.42
2022-11-26T07:01:10.124Z,51.10
2022-11-26T07:03:38.298Z,34.92
2022-11-26T07:06:06.138Z,51.75
2022-11-26T07:08:33.961Z,38.03
2022-11-26T07:11:04.109Z,48.65
2022-11-26T07:13:32.110Z,35.63
2022-11-26T07:16:03.200Z,45.15
2022-11-26T07:18:32.741Z,30.67
2022-11-26T07:21:06.002Z,43.20
2022-11-26T07:23:33.934Z,46.40
2022-11-26T07:26:02.541Z,43.17
2022-11-26T07:28:31.093Z,40.53
2022-11-26T07:31:02.117Z,38.42
2022-11-26T07:33:31.903Z,42.05
2022-11-26T07:36:00.728Z,42.33
2022-11-26T07:38:28.792Z,38.20
2022-11-26T07:41:03.311Z,40.05
2022-11-26T07:43:31.132Z,33.25
2022-11-26T07:46:02.603Z,42.22
2022-11-26T07:48:33.367Z,41.55
2022-11-26T07:51:02.053Z,41.88
2022-11-26T07:53:30.344Z,45.63
2022-11-26T07:55:58.067Z,42.28
2022-11-26T07:58:26.835Z,35.63
2022-11-26T08:00:55.183Z,39.30
2022-11-26T08:03:23.028Z,27.73
2022-11-26T08:05:52.178Z,32.80
2022-11-26T08:08:19.951Z,41.88
2022-11-26T08:10:47.798Z,36.65
2022-11-26T08:13:15.582Z,41.90
2022-11-26T08:15:43.417Z,37.08
2022-11-26T08:18:11.877Z,36.67
2022-11-26T08:20:41.715Z,30.60
2022-11-26T08:23:10.913Z,38.28
2022-11-26T08:25:45.140Z,35.90
2022-11-26T08:28:26.526Z,38.22
2022-11-26T08:31:04.592Z,31.25
2022-11-26T08:33:32.893Z,37.88
2022-11-26T08:36:08.861Z,36.22
2022-11-26T08:38:38.441Z,34.03
2022-11-26T08:41:08.881Z,36.22
2022-11-26T08:44:04.601Z,35.35
2022-11-26T08:46:26.040Z,31.23
2022-11-26T08:48:56.275Z,27.35
2022-11-26T08:51:26.781Z,24.07
2022-11-26T08:53:55.971Z,26.60
2022-11-26T08:56:23.974Z,31.15
2022-11-26T08:58:51.878Z,28.85
2022-11-26T09:01:22.142Z,23.27
2022-11-26T09:03:51.745Z,25.10
2022-11-26T09:06:20.821Z,17.58
2022-11-26T09:09:07.154Z,21.42
2022-11-26T09:11:39.303Z,26.10
2022-11-26T09:16:35.334Z,18.48
2022-11-26T09:19:04.567Z,27.98
2022-11-26T09:21:32.575Z,21.88
2022-11-26T09:24:00.654Z,34.08
2022-11-26T09:26:28.444Z,27.77
2022-11-26T09:28:57.749Z,31.98
2022-11-26T09:31:25.730Z,35.60
2022-11-26T09:33:56.069Z,35.80
2022-11-26T09:36:23.941Z,23.77
2022-11-26T09:38:55.090Z,28.00
2022-11-26T09:41:39.199Z,35.10
2022-11-26T09:44:20.846Z,32.47
2022-11-26T09:47:14.825Z,38.17
2022-11-26T09:49:54.416Z,33.80
2022-11-26T09:52:25.591Z,27.85
2022-11-26T09:55:01.873Z,32.70
2022-11-26T09:57:34.900Z,25.27
2022-11-26T10:00:06.786Z,24.88
2022-11-26T10:02:35.101Z,29.65
2022-11-26T10:05:02.952Z,28.10
2022-11-26T10:07:47.205Z,26.35
2022-11-26T10:10:20.236Z,22.70
2022-11-26T10:16:01.841Z,23.38
2022-11-26T10:18:39.535Z,22.00
2022-11-26T10:21:26.843Z,18.35
2022-11-26T10:24:00.543Z,18.83
2022-11-26T10:26:31.177Z,17.45
2022-11-26T10:29:15.817Z,21.15
2022-11-26T10:31:47.788Z,24.08
2022-11-26T10:34:19.216Z,17.67
2022-11-26T10:36:49.349Z,20.00
2022-11-26T10:39:20.556Z,14.75
2022-11-26T10:41:49.102Z,19.77
2022-11-26T10:44:30.850Z,12.98
2022-11-26T10:47:01.270Z,14.65
2022-11-26T10:49:30.677Z,13.77
2022-11-26T10:52:02.022Z,12.23
2022-11-26T10:54:34.331Z,13.13
2022-11-26T10:57:13.568Z,13.13
2022-11-26T10:59:48.280Z,15.30
2022-11-26T11:02:30.421Z,13.32
2022-11-26T11:05:00.252Z,14.88
2022-11-26T11:07:41.603Z,13.13
2022-11-26T11:10:17.422Z,12.70
2022-11-26T11:12:49.251Z,12.32
2022-11-26T11:15:23.138Z,12.93
2022-11-26T11:17:59.889Z,9.50
2022-11-26T11:20:34.299Z,12.23
2022-11-26T11:23:19.984Z,14.73
2022-11-26T11:25:57.710Z,14.82
2022-11-26T11:28:28.142Z,10.82
2022-11-26T11:31:03.646Z,11.95
2022-11-26T11:33:33.311Z,11.43
2022-11-26T11:36:17.974Z,11.80
2022-11-26T11:38:50.823Z,13.75
2022-11-26T11:41:26.194Z,11.57
2022-11-26T11:44:04.816Z,14.07
2022-11-26T11:47:21.619Z,9.52
2022-11-26T11:50:04.226Z,11.32
2022-11-26T11:52:39.543Z,26.60
2022-11-26T11:55:20.710Z,20.30
2022-11-26T11:58:01.929Z,16.35
2022-11-26T12:00:43.143Z,12.25
2022-11-26T12:03:50.527Z,17.00
2022-11-26T12:06:30.688Z,12.98
2022-11-26T12:09:08.723Z,19.92
2022-11-26T12:11:48.476Z,14.07
2022-11-26T12:14:21.838Z,10.60
2022-11-26T12:16:54.200Z,10.15
2022-11-26T12:19:30.242Z,15.27
2022-11-26T12:22:06.881Z,18.58
2022-11-26T12:24:41.594Z,17.48
2022-11-26T12:27:21.466Z,10.98
2022-11-26T12:29:54.670Z,14.30
2022-11-26T12:32:29.033Z,10.30
2022-11-26T12:35:01.128Z,12.60
2022-11-26T12:40:05.163Z,13.27
2022-11-26T12:42:41.892Z,10.38
2022-11-26T12:45:18.800Z,13.15
2022-11-26T12:47:52.896Z,5.90
2022-11-26T12:50:28.720Z,12.00
2022-11-26T12:53:05.110Z,10.15
2022-11-26T12:55:39.907Z,10.85
2022-11-26T12:58:13.823Z,14.55
2022-11-26T13:00:41.891Z,14.15
2022-11-26T13:03:16.866Z,12.38
2022-11-26T13:05:55.606Z,13.23
2022-11-26T13:08:41.100Z,14.48
2022-11-26T13:11:26.026Z,12.70
2022-11-26T13:14:02.474Z,14.85
2022-11-26T13:16:37.860Z,13.63
2022-11-26T13:19:12.232Z,19.33
2022-11-26T13:21:51.053Z,12.35
2022-11-26T13:24:38.925Z,11.52
2022-11-26T13:27:24.238Z,12.63
2022-11-26T13:30:10.676Z,8.65
2022-11-26T13:33:09.964Z,13.73
2022-11-26T13:36:03.536Z,10.00
2022-11-26T13:38:38.382Z,9.57
2022-11-26T13:41:45.016Z,10.10
2022-11-26T13:44:46.873Z,12.90
2022-11-26T13:47:18.649Z,9.63
2022-11-26T13:49:52.144Z,8.65
2022-11-26T13:52:27.331Z,15.80
2022-11-26T13:55:02.128Z,12.48
2022-11-26T13:57:39.751Z,7.13
2022-11-26T14:00:09.795Z,10.00
2022-11-26T14:02:47.359Z,8.45
2022-11-26T14:05:17.026Z,17.48
2022-11-26T14:07:46.422Z,10.48
2022-11-26T14:10:44.160Z,13.70
2022-11-26T14:13:16.115Z,15.02
2022-11-26T14:15:58.351Z,10.27
2022-11-26T14:21:13.321Z,11.88
2022-11-26T14:23:44.726Z,14.63
2022-11-26T14:26:19.530Z,11.45
2022-11-26T14:28:49.645Z,8.75
2022-11-26T14:31:23.015Z,12.98
2022-11-26T14:33:53.369Z,13.98
2022-11-26T14:36:22.470Z,9.40
2022-11-26T14:39:05.601Z,14.57
2022-11-26T14:41:51.282Z,20.58
2022-11-26T14:44:21.800Z,13.50
2022-11-26T14:46:51.947Z,12.63
2022-11-26T14:49:30.591Z,14.07
2022-11-26T14:52:00.172Z,11.60
2022-11-26T14:54:31.972Z,14.95
2022-11-26T14:57:05.741Z,10.02
2022-11-26T14:59:35.070Z,17.40
2022-11-26T15:02:02.911Z,19.25
2022-11-26T15:04:34.579Z,9.70
2022-11-26T15:07:02.453Z,8.93
2022-11-26T15:09:30.263Z,11.52
2022-11-26T15:12:05.802Z,17.98
2022-11-26T15:14:42.666Z,9.18
2022-11-26T15:17:14.666Z,15.70
2022-11-26T15:19:43.381Z,16.10
2022-11-26T15:22:22.020Z,9.35
2022-11-26T15:24:51.176Z,16.00
2022-11-26T15:27:29.856Z,13.70
2022-11-26T15:29:59.030Z,18.35
2022-11-26T15:32:28.844Z,11.07
2022-11-26T15:35:00.134Z,19.17
2022-11-26T15:37:28.287Z,14.57
2022-11-26T15:40:21.548Z,19.48
2022-11-26T15:42:50.782Z,16.40
2022-11-26T15:45:22.697Z,14.25
2022-11-26T15:47:53.150Z,14.32
2022-11-26T15:50:30.490Z,14.23
2022-11-26T15:53:02.082Z,14.90
2022-11-26T15:55:33.329Z,17.70
2022-11-26T15:58:03.998Z,17.47
2022-11-26T16:00:37.729Z,28.77
2022-11-26T16:03:26.831Z,18.40
2022-11-26T16:05:56.336Z,13.93
2022-11-26T16:08:26.631Z,11.88
2022-11-26T16:10:57.286Z,15.30
2022-11-26T16:13:28.981Z,17.63
2022-11-26T16:16:02.175Z,16.20
2022-11-26T16:18:37.866Z,14.10
2022-11-26T16:21:08.437Z,11.57
2022-11-26T16:23:36.788Z,15.68
2022-11-26T16:26:17.566Z,16.85
2022-11-26T16:28:46.350Z,14.77
2022-11-26T16:31:17.013Z,19.45
2022-11-26T16:33:46.292Z,12.57
2022-11-26T16:36:20.527Z,13.07
2022-11-26T16:38:49.029Z,18.10
2022-11-26T16:41:18.510Z,17.40
2022-11-26T16:43:46.344Z,16.58
2022-11-26T16:46:17.493Z,15.60
2022-11-26T16:48:46.427Z,21.07
2022-11-26T16:51:14.412Z,19.75
2022-11-26T16:53:42.603Z,16.02
2022-11-26T16:56:19.355Z,17.88
2022-11-26T16:58:47.484Z,15.38
2022-11-26T17:01:16.747Z,16.90
2022-11-26T17:03:44.947Z,17.33
2022-11-26T17:06:15.065Z,17.50
2022-11-26T17:08:49.132Z,13.93
2022-11-26T17:11:17.346Z,25.55
2022-11-26T17:13:45.134Z,33.20
2022-11-26T17:16:20.755Z,21.90
2022-11-26T17:18:49.170Z,19.30
2022-11-26T17:21:17.297Z,20.52
2022-11-26T17:23:45.078Z,12.13
2022-11-26T17:26:19.009Z,12.40
2022-11-26T17:28:47.273Z,17.17
2022-11-26T17:31:16.819Z,16.70
2022-11-26T17:33:44.621Z,17.65
2022-11-26T17:36:17.296Z,24.02
2022-11-26T17:38:46.075Z,13.43
2022-11-26T17:41:14.789Z,14.88
2022-11-26T17:43:43.023Z,19.92
2022-11-26T17:46:16.782Z,16.98
2022-11-26T17:48:46.001Z,11.77
2022-11-26T17:51:14.936Z,15.25
2022-11-26T17:53:43.806Z,22.40
2022-11-26T17:56:22.521Z,13.23
2022-11-26T17:58:50.944Z,17.52
2022-11-26T18:01:20.421Z,17.92
2022-11-26T18:03:48.546Z,18.50
2022-11-26T18:06:17.459Z,13.02
2022-11-26T18:08:45.760Z,14.93
2022-11-26T18:11:14.720Z,17.83
2022-11-26T18:13:45.281Z,23.02
2022-11-26T18:16:13.134Z,16.77
2022-11-26T18:18:42.311Z,21.15
2022-11-26T18:21:10.092Z,19.08
2022-11-26T18:23:37.883Z,16.77
2022-11-26T18:26:05.857Z,11.98
2022-11-26T18:28:33.643Z,16.20
2022-11-26T18:31:01.507Z,12.52
2022-11-26T18:33:29.665Z,16.67
2022-11-26T18:35:58.883Z,18.73
2022-11-26T18:38:29.042Z,17.17
2022-11-26T18:41:01.044Z,15.27
2022-11-26T18:43:30.409Z,13.57
2022-11-26T18:45:58.483Z,13.95
2022-11-26T18:48:26.238Z,13.35
2022-11-26T18:50:58.984Z,11.68
2022-11-26T18:53:27.806Z,14.57
2022-11-26T18:55:56.323Z,16.13
2022-11-26T18:58:25.482Z,13.98
2022-11-26T19:00:58.344Z,17.77
2022-11-26T19:03:27.487Z,17.17
2022-11-26T19:05:55.881Z,13.38
2022-11-26T19:08:25.031Z,21.05
2022-11-26T19:10:52.818Z,26.25
2022-11-26T19:13:20.853Z,18.75
2022-11-26T19:15:49.038Z,19.10
2022-11-26T19:18:17.408Z,23.10
2022-11-26T19:20:49.809Z,17.95
2022-11-26T19:23:17.800Z,14.75
2022-11-26T19:25:46.856Z,19.88
2022-11-26T19:28:14.622Z,25.80
2022-11-26T19:30:42.349Z,20.55
2022-11-26T19:33:10.179Z,22.52
2022-11-26T19:35:39.637Z,23.83
2022-11-26T19:38:07.501Z,19.05
2022-11-26T19:40:35.488Z,22.98
2022-11-26T19:43:05.135Z,18.73
2022-11-26T19:45:33.041Z,18.38
2022-11-26T19:48:01.086Z,18.67
2022-11-26T19:50:28.829Z,17.10
2022-11-26T19:52:56.581Z,15.45
2022-11-26T19:55:24.357Z,18.15
2022-11-26T19:57:52.511Z,19.40
2022-11-26T20:00:22.316Z,20.92
2022-11-26T20:02:50.119Z,22.30
2022-11-26T20:05:18.235Z,20.52
2022-11-26T20:07:46.247Z,30.77
2022-11-26T20:10:15.938Z,17.23
2022-11-26T20:12:43.746Z,18.90
2022-11-26T20:15:12.612Z,21.42
2022-11-26T20:17:41.771Z,16.02
2022-11-26T20:20:10.811Z,25.88
2022-11-26T20:22:39.152Z,23.88
2022-11-26T20:25:09.087Z,18.60
2022-11-26T20:27:36.967Z,27.38
2022-11-26T20:30:05.834Z,23.52
2022-11-26T20:32:33.550Z,18.05
2022-11-26T20:35:02.707Z,23.35
2022-11-26T20:37:30.568Z,20.35
2022-11-26T20:39:59.409Z,22.95
2022-11-26T20:42:27.737Z,24.30
2022-11-26T20:44:55.526Z,24.15
2022-11-26T20:47:24.047Z,22.35
2022-11-26T20:49:51.802Z,24.25
2022-11-26T20:52:23.590Z,29.80
2022-11-26T20:54:53.786Z,26.73
2022-11-26T20:57:23.397Z,34.15
2022-11-26T20:59:52.181Z,25.58
2022-11-26T21:02:20.100Z,23.85
2022-11-26T21:04:47.887Z,25.95
2022-11-26T21:07:15.678Z,22.52
2022-11-26T21:09:46.256Z,25.40
2022-11-26T21:12:14.098Z,21.75
2022-11-26T21:14:41.938Z,26.05
2022-11-26T21:17:09.719Z,19.95
2022-11-26T21:19:37.805Z,29.05
2022-11-26T21:22:05.845Z,28.50
2022-11-26T21:24:33.750Z,26.08
2022-11-26T21:27:02.881Z,22.55
2022-11-26T21:29:30.690Z,23.33
2022-11-26T21:31:58.454Z,29.35
2022-11-26T21:34:26.476Z,26.33
2022-11-26T21:36:54.299Z,32.50
2022-11-26T21:39:22.128Z,25.73
2022-11-26T21:41:49.911Z,25.10
2022-11-26T21:44:19.083Z,19.02
2022-11-26T21:46:46.896Z,25.63
2022-11-26T21:49:14.736Z,28.80
2022-11-26T21:51:42.551Z,56.58
2022-11-26T21:54:10.482Z,49.88
2022-11-26T21:56:38.514Z,46.53
2022-11-26T21:59:06.232Z,36.42
2022-11-26T22:01:37.069Z,40.65
2022-11-26T22:04:07.581Z,34.67
2022-11-26T22:06:36.079Z,51.55
2022-11-26T22:09:04.946Z,43.88
2022-11-26T22:11:35.733Z,51.58
2022-11-26T22:14:03.744Z,30.30
2022-11-26T22:16:32.015Z,31.42
2022-11-26T22:19:02.444Z,32.08
2022-11-26T22:21:32.463Z,31.25
2022-11-26T22:24:01.475Z,31.83
2022-11-26T22:26:30.528Z,42.00
2022-11-26T22:28:58.455Z,33.60
2022-11-26T22:31:27.776Z,43.05
2022-11-26T22:33:56.939Z,37.83
2022-11-26T22:36:26.933Z,43.50
2022-11-26T22:38:54.902Z,39.70
2022-11-26T22:41:23.441Z,49.92
2022-11-26T22:43:51.221Z,74.25
2022-11-26T22:46:20.826Z,83.60
2022-11-26T22:48:51.161Z,50.47
2022-11-26T22:51:19.330Z,84.32
2022-11-26T22:53:52.038Z,49.67
2022-11-26T22:56:20.692Z,78.95
2022-11-26T22:58:48.796Z,59.80
2022-11-26T23:01:20.067Z,45.67
2022-11-26T23:03:48.200Z,37.83
2022-11-26T23:06:17.848Z,29.13
2022-11-26T23:08:46.597Z,24.27
2022-11-26T23:11:18.459Z,28.15
2022-11-26T23:13:48.144Z,38.55
2022-11-26T23:16:16.261Z,51.28
2022-11-26T23:18:44.201Z,40.45
2022-11-26T23:21:13.974Z,49.25
2022-11-26T23:23:42.060Z,48.03
2022-11-26T23:26:12.976Z,32.53
2022-11-26T23:28:42.121Z,25.42
2022-11-26T23:31:15.572Z,26.00
2022-11-26T23:33:43.898Z,35.42
2022-11-26T23:36:12.155Z,36.22
2022-11-26T23:38:40.303Z,35.35
2022-11-26T23:41:08.688Z,37.20
2022-11-26T23:43:38.025Z,37.70
2022-11-26T23:46:10.946Z,34.53
2022-11-26T23:48:38.814Z,33.28
2022-11-26T23:51:08.330Z,31.90
2022-11-26T23:53:37.142Z,32.72
2022-11-26T23:56:06.696Z,28.83
2022-11-26T23:58:34.641Z,28.98
